createdAt,value
2022-09-14T00:00:25.470Z,0.00
2022-09-14T00:01:26.881Z,0.00
2022-09-14T00:02:25.811Z,0.00
2022-09-14T00:03:25.508Z,0.00
2022-09-14T00:04:25.450Z,0.00
2022-09-14T00:05:25.435Z,0.00
2022-09-14T00:06:25.451Z,0.00
2022-09-14T00:07:25.862Z,0.00
2022-09-14T00:08:25.432Z,0.00
2022-09-14T00:09:25.716Z,0.00
2022-09-14T00:10:25.411Z,0.00
2022-09-14T00:11:25.402Z,0.00
2022-09-14T00:12:25.388Z,0.00
2022-09-14T00:13:25.816Z,0.00
2022-09-14T00:14:25.384Z,0.00
2022-09-14T00:15:25.365Z,0.00
2022-09-14T00:16:26.362Z,0.00
2022-09-14T00:17:25.350Z,0.00
2022-09-14T00:18:26.045Z,0.00
2022-09-14T00:19:25.349Z,0.00
2022-09-14T00:20:25.331Z,0.00
2022-09-14T00:21:25.329Z,0.00
2022-09-14T00:22:25.347Z,0.00
2022-09-14T00:23:25.309Z,0.00
2022-09-14T00:24:25.307Z,0.00
2022-09-14T00:25:25.327Z,0.00
2022-09-14T00:26:25.297Z,0.00
2022-09-14T00:27:25.286Z,0.00
2022-09-14T00:28:25.300Z,0.00
2022-09-14T00:29:25.281Z,0.00
2022-09-14T00:30:25.276Z,0.00
2022-09-14T00:31:25.293Z,0.00
2022-09-14T00:32:25.250Z,0.00
2022-09-14T00:33:25.247Z,0.00
2022-09-14T00:34:25.242Z,0.00
2022-09-14T00:35:25.684Z,0.00
2022-09-14T00:36:25.233Z,0.00
2022-09-14T00:37:25.214Z,0.00
2022-09-14T00:38:25.205Z,0.00
2022-09-14T00:39:25.890Z,0.00
2022-09-14T00:40:25.427Z,0.00
2022-09-14T00:41:25.207Z,0.00
2022-09-14T00:42:25.178Z,0.00
2022-09-14T00:43:25.191Z,0.00
2022-09-14T00:44:25.182Z,0.00
2022-09-14T00:45:25.218Z,0.00
2022-09-14T00:46:25.157Z,0.00
2022-09-14T00:47:25.144Z,0.00
2022-09-14T00:48:25.155Z,0.00
2022-09-14T00:49:25.143Z,0.00
2022-09-14T00:50:25.123Z,0.00
2022-09-14T00:51:25.122Z,0.00
2022-09-14T00:52:25.109Z,0.00
2022-09-14T00:53:25.104Z,0.00
2022-09-14T00:54:25.099Z,0.00
2022-09-14T00:55:25.102Z,0.00
2022-09-14T00:56:25.086Z,0.00
2022-09-14T00:57:25.181Z,0.00
2022-09-14T00:58:25.071Z,0.00
2022-09-14T00:59:25.493Z,0.00
2022-09-14T01:00:25.049Z,0.00
2022-09-14T01:01:25.140Z,0.00
2022-09-14T01:02:25.124Z,0.00
2022-09-14T01:03:25.029Z,0.00
2022-09-14T01:04:25.737Z,0.00
2022-09-14T01:05:25.030Z,0.00
2022-09-14T01:06:25.007Z,0.00
2022-09-14T01:07:25.011Z,0.00
2022-09-14T01:08:25.013Z,0.00
2022-09-14T01:09:24.996Z,0.00
2022-09-14T01:10:25.004Z,0.00
2022-09-14T01:11:24.988Z,0.00
2022-09-14T01:12:24.964Z,0.00
2022-09-14T01:13:24.992Z,0.00
2022-09-14T01:14:25.465Z,0.00
2022-09-14T01:15:24.947Z,0.00
2022-09-14T01:16:24.974Z,0.00
2022-09-14T01:17:24.932Z,0.00
2022-09-14T01:18:24.938Z,0.00
2022-09-14T01:19:24.932Z,0.00
2022-09-14T01:20:24.910Z,0.00
2022-09-14T01:21:24.911Z,0.00
2022-09-14T01:22:24.917Z,0.00
2022-09-14T01:23:24.889Z,0.00
2022-09-14T01:24:24.890Z,0.00
2022-09-14T01:25:24.877Z,0.00
2022-09-14T01:26:24.872Z,0.00
2022-09-14T01:27:24.874Z,0.00
2022-09-14T01:28:24.924Z,0.00
2022-09-14T01:29:27.831Z,0.00
2022-09-14T01:30:24.839Z,0.00
2022-09-14T01:31:24.916Z,0.00
2022-09-14T01:32:24.826Z,0.00
2022-09-14T01:33:24.836Z,0.00
2022-09-14T01:34:24.832Z,0.00
2022-09-14T01:35:24.809Z,0.00
2022-09-14T01:36:24.810Z,0.00
2022-09-14T01:37:24.812Z,0.00
2022-09-14T01:38:24.807Z,0.00
2022-09-14T01:39:24.787Z,0.00
2022-09-14T01:40:24.850Z,0.00
2022-09-14T01:41:24.773Z,0.00
2022-09-14T01:42:24.767Z,0.00
2022-09-14T01:43:25.116Z,0.00
2022-09-14T01:44:24.744Z,0.00
2022-09-14T01:45:25.051Z,0.00
2022-09-14T01:46:24.739Z,0.00
2022-09-14T01:47:24.741Z,0.00
2022-09-14T01:48:24.724Z,0.00
2022-09-14T01:49:24.717Z,0.00
2022-09-14T01:50:24.702Z,0.00
2022-09-14T01:51:24.860Z,0.00
2022-09-14T01:52:24.691Z,0.00
2022-09-14T01:53:24.689Z,0.00
2022-09-14T01:54:25.267Z,0.00
2022-09-14T01:55:24.669Z,0.00
2022-09-14T01:56:24.675Z,0.00
2022-09-14T01:57:24.657Z,0.00
2022-09-14T01:58:24.698Z,0.00
2022-09-14T01:59:24.648Z,0.00
2022-09-14T02:00:24.634Z,0.00
2022-09-14T02:01:24.797Z,0.00
2022-09-14T02:02:25.243Z,0.00
2022-09-14T02:03:24.615Z,0.00
2022-09-14T02:04:25.237Z,0.00
2022-09-14T02:05:24.600Z,0.00
2022-09-14T02:06:24.591Z,0.00
2022-09-14T02:07:24.595Z,0.00
2022-09-14T02:08:24.585Z,0.00
2022-09-14T02:09:24.582Z,0.00
2022-09-14T02:10:25.354Z,0.00
2022-09-14T02:11:24.558Z,0.00
2022-09-14T02:12:24.565Z,0.00
2022-09-14T02:13:24.546Z,0.00
2022-09-14T02:14:24.541Z,0.00
2022-09-14T02:15:24.959Z,0.00
2022-09-14T02:16:24.888Z,0.00
2022-09-14T02:17:24.515Z,0.00
2022-09-14T02:18:24.531Z,0.00
2022-09-14T02:19:24.508Z,0.00
2022-09-14T02:20:25.497Z,0.00
2022-09-14T02:21:24.494Z,0.00
2022-09-14T02:22:24.486Z,0.00
2022-09-14T02:23:24.477Z,0.00
2022-09-14T02:24:24.477Z,0.00
2022-09-14T02:25:24.465Z,0.00
2022-09-14T02:26:24.485Z,0.00
2022-09-14T02:27:24.472Z,0.00
2022-09-14T02:28:24.439Z,0.00
2022-09-14T02:29:24.438Z,0.00
2022-09-14T02:30:24.424Z,0.00
2022-09-14T02:31:24.486Z,0.00
2022-09-14T02:32:24.420Z,0.00
2022-09-14T02:33:24.407Z,0.00
2022-09-14T02:34:24.423Z,0.00
2022-09-14T02:35:24.392Z,0.00
2022-09-14T02:36:24.399Z,0.00
2022-09-14T02:37:24.371Z,0.00
2022-09-14T02:38:24.375Z,0.00
2022-09-14T02:39:24.362Z,0.00
2022-09-14T02:40:24.400Z,0.00
2022-09-14T02:41:24.380Z,0.00
2022-09-14T02:42:25.267Z,0.00
2022-09-14T02:43:24.341Z,0.00
2022-09-14T02:44:24.328Z,0.00
2022-09-14T02:45:24.319Z,0.00
2022-09-14T02:46:24.396Z,0.00
2022-09-14T02:47:24.312Z,0.00
2022-09-14T02:48:24.331Z,0.00
2022-09-14T02:49:25.055Z,0.00
2022-09-14T02:50:24.315Z,0.00
2022-09-14T02:51:24.274Z,0.00
2022-09-14T02:52:24.282Z,0.00
2022-09-14T02:53:24.304Z,0.00
2022-09-14T02:54:24.254Z,0.00
2022-09-14T02:55:24.258Z,0.00
2022-09-14T02:56:24.240Z,0.00
2022-09-14T02:57:24.231Z,0.00
2022-09-14T02:58:24.724Z,0.00
2022-09-14T02:59:24.223Z,0.00
2022-09-14T03:00:24.235Z,0.00
2022-09-14T03:01:24.356Z,0.00
2022-09-14T03:02:24.286Z,0.00
2022-09-14T03:03:24.197Z,0.00
2022-09-14T03:04:24.187Z,0.00
2022-09-14T03:05:24.178Z,0.00
2022-09-14T03:06:24.218Z,0.00
2022-09-14T03:07:24.163Z,0.00
2022-09-14T03:08:24.169Z,0.00
2022-09-14T03:09:24.157Z,0.00
2022-09-14T03:10:24.172Z,0.00
2022-09-14T03:11:24.151Z,0.00
2022-09-14T03:12:24.371Z,0.00
2022-09-14T03:13:24.574Z,0.00
2022-09-14T03:14:24.122Z,0.00
2022-09-14T03:15:24.110Z,0.00
2022-09-14T03:16:24.269Z,0.00
2022-09-14T03:17:24.125Z,0.00
2022-09-14T03:18:24.101Z,0.00
2022-09-14T03:19:24.086Z,0.00
2022-09-14T03:20:24.085Z,0.00
2022-09-14T03:21:24.076Z,0.00
2022-09-14T03:22:24.098Z,0.00
2022-09-14T03:23:24.265Z,0.00
2022-09-14T03:24:24.058Z,0.00
2022-09-14T03:25:24.079Z,0.00
2022-09-14T03:26:24.041Z,0.00
2022-09-14T03:27:24.024Z,0.00
2022-09-14T03:28:24.076Z,0.00
2022-09-14T03:29:24.017Z,0.00
2022-09-14T03:30:24.006Z,0.00
2022-09-14T03:31:24.066Z,0.00
2022-09-14T03:32:23.990Z,0.00
2022-09-14T03:33:23.982Z,0.00
2022-09-14T03:34:23.998Z,0.00
2022-09-14T03:35:23.982Z,0.00
2022-09-14T03:36:23.972Z,0.00
2022-09-14T03:37:23.954Z,0.00
2022-09-14T03:38:24.769Z,0.00
2022-09-14T03:39:24.639Z,0.00
2022-09-14T03:40:23.995Z,0.00
2022-09-14T03:41:23.931Z,0.00
2022-09-14T03:42:23.920Z,0.00
2022-09-14T03:43:23.919Z,0.00
2022-09-14T03:44:23.903Z,0.00
2022-09-14T03:45:23.990Z,0.00
2022-09-14T03:46:23.952Z,0.00
2022-09-14T03:47:23.893Z,0.00
2022-09-14T03:48:23.883Z,0.00
2022-09-14T03:49:23.876Z,0.00
2022-09-14T03:50:23.862Z,0.00
2022-09-14T03:51:23.866Z,0.00
2022-09-14T03:52:23.855Z,0.00
2022-09-14T03:53:23.845Z,0.00
2022-09-14T03:54:23.855Z,0.00
2022-09-14T03:55:24.444Z,0.00
2022-09-14T03:56:23.821Z,0.00
2022-09-14T03:57:23.813Z,0.00
2022-09-14T03:58:23.972Z,0.00
2022-09-14T03:59:23.795Z,0.00
2022-09-14T04:00:23.796Z,0.00
2022-09-14T04:01:23.841Z,0.00
2022-09-14T04:02:23.838Z,0.00
2022-09-14T04:03:24.529Z,0.00
2022-09-14T04:04:23.761Z,0.00
2022-09-14T04:05:23.755Z,0.00
2022-09-14T04:06:23.755Z,0.00
2022-09-14T04:07:23.738Z,0.00
2022-09-14T04:08:24.068Z,0.00
2022-09-14T04:09:23.733Z,0.00
2022-09-14T04:10:23.838Z,0.00
2022-09-14T04:11:23.722Z,0.00
2022-09-14T04:12:23.708Z,0.00
2022-09-14T04:13:24.258Z,0.00
2022-09-14T04:14:23.699Z,0.00
2022-09-14T04:15:23.685Z,0.00
2022-09-14T04:16:23.726Z,0.00
2022-09-14T04:17:23.680Z,0.00
2022-09-14T04:18:23.669Z,0.00
2022-09-14T04:19:24.188Z,0.00
2022-09-14T04:20:23.655Z,0.00
2022-09-14T04:21:23.647Z,0.00
2022-09-14T04:22:23.649Z,0.00
2022-09-14T04:23:23.642Z,0.00
2022-09-14T04:24:27.721Z,0.00
2022-09-14T04:25:24.618Z,0.00
2022-09-14T04:26:23.726Z,0.00
2022-09-14T04:27:23.624Z,0.00
2022-09-14T04:28:23.606Z,0.00
2022-09-14T04:29:23.601Z,0.00
2022-09-14T04:30:23.587Z,0.00
2022-09-14T04:31:23.714Z,0.00
2022-09-14T04:32:23.598Z,0.00
2022-09-14T04:33:23.584Z,0.00
2022-09-14T04:34:23.567Z,0.00
2022-09-14T04:35:23.557Z,0.00
2022-09-14T04:36:23.548Z,0.00
2022-09-14T04:37:23.558Z,0.00
2022-09-14T04:38:23.786Z,0.00
2022-09-14T04:39:23.517Z,0.00
2022-09-14T04:40:23.603Z,0.00
2022-09-14T04:41:23.513Z,0.00
2022-09-14T04:42:23.562Z,0.00
2022-09-14T04:43:23.518Z,0.00
2022-09-14T04:44:23.486Z,0.00
2022-09-14T04:45:23.511Z,0.00
2022-09-14T04:46:23.540Z,0.00
2022-09-14T04:47:23.614Z,0.00
2022-09-14T04:48:23.463Z,0.00
2022-09-14T04:49:24.103Z,4.00
2022-09-14T04:50:23.443Z,4.00
2022-09-14T04:51:23.484Z,4.00
2022-09-14T04:52:23.429Z,4.00
2022-09-14T04:53:23.421Z,4.00
2022-09-14T04:54:23.422Z,4.00
2022-09-14T04:55:23.541Z,4.00
2022-09-14T04:56:23.633Z,4.00
2022-09-14T04:57:23.397Z,4.00
2022-09-14T04:58:23.501Z,4.00
2022-09-14T04:59:23.378Z,4.00
2022-09-14T05:00:23.381Z,4.00
2022-09-14T05:01:23.494Z,0.00
2022-09-14T05:02:23.556Z,0.00
2022-09-14T05:03:23.361Z,4.00
2022-09-14T05:04:23.350Z,4.00
2022-09-14T05:05:23.771Z,0.00
2022-09-14T05:06:23.348Z,0.00
2022-09-14T05:07:23.370Z,0.00
2022-09-14T05:08:23.330Z,0.00
2022-09-14T05:09:23.323Z,4.00
2022-09-14T05:10:23.319Z,0.00
2022-09-14T05:11:23.303Z,0.00
2022-09-14T05:12:23.325Z,0.00
2022-09-14T05:13:23.314Z,0.00
2022-09-14T05:14:23.424Z,0.00
2022-09-14T05:15:23.279Z,0.00
2022-09-14T05:16:23.390Z,0.00
2022-09-14T05:17:23.257Z,0.00
2022-09-14T05:18:23.680Z,0.00
2022-09-14T05:19:23.244Z,0.00
2022-09-14T05:20:23.249Z,0.00
2022-09-14T05:21:23.234Z,0.00
2022-09-14T05:22:23.222Z,0.00
2022-09-14T05:23:23.421Z,0.00
2022-09-14T05:24:23.208Z,0.00
2022-09-14T05:25:23.214Z,0.00
2022-09-14T05:26:23.200Z,0.00
2022-09-14T05:27:23.198Z,0.00
2022-09-14T05:28:23.192Z,0.00
2022-09-14T05:29:23.188Z,0.00
2022-09-14T05:30:23.210Z,0.00
2022-09-14T05:31:23.235Z,0.00
2022-09-14T05:32:23.175Z,0.00
2022-09-14T05:33:23.146Z,0.00
2022-09-14T05:34:23.146Z,0.00
2022-09-14T05:35:23.150Z,0.00
2022-09-14T05:36:23.125Z,0.00
2022-09-14T05:37:23.128Z,0.00
2022-09-14T05:38:23.115Z,0.00
2022-09-14T05:39:23.505Z,0.00
2022-09-14T05:40:23.181Z,0.00
2022-09-14T05:41:23.109Z,0.00
2022-09-14T05:42:23.088Z,0.00
2022-09-14T05:43:23.083Z,0.00
2022-09-14T05:44:23.093Z,0.00
2022-09-14T05:45:23.064Z,0.00
2022-09-14T05:46:23.169Z,0.00
2022-09-14T05:47:23.066Z,0.00
2022-09-14T05:48:23.047Z,0.00
2022-09-14T05:49:23.057Z,0.00
2022-09-14T05:50:23.032Z,0.00
2022-09-14T05:51:23.027Z,4.00
2022-09-14T05:52:23.024Z,4.00
2022-09-14T05:53:23.005Z,4.00
2022-09-14T05:54:23.008Z,4.00
2022-09-14T05:55:23.413Z,4.00
2022-09-14T05:56:22.987Z,4.00
2022-09-14T05:57:22.986Z,4.00
2022-09-14T05:58:22.980Z,0.00
2022-09-14T05:59:23.433Z,0.00
2022-09-14T06:00:22.965Z,4.00
2022-09-14T06:01:23.026Z,4.00
2022-09-14T06:02:23.053Z,4.00
2022-09-14T06:03:22.941Z,4.00
2022-09-14T06:04:22.936Z,4.00
2022-09-14T06:05:23.002Z,4.00
2022-09-14T06:06:23.523Z,4.00
2022-09-14T06:07:22.904Z,4.00
2022-09-14T06:08:22.901Z,4.00
2022-09-14T06:09:22.894Z,4.00
2022-09-14T06:10:22.884Z,4.00
2022-09-14T06:11:23.105Z,0.00
2022-09-14T06:12:22.875Z,0.00
2022-09-14T06:13:22.859Z,0.00
2022-09-14T06:14:22.860Z,0.00
2022-09-14T06:15:22.860Z,0.00
2022-09-14T06:16:22.852Z,0.00
2022-09-14T06:17:24.039Z,4.00
2022-09-14T06:18:22.943Z,0.00
2022-09-14T06:19:22.819Z,0.00
2022-09-14T06:20:22.819Z,4.00
2022-09-14T06:21:22.807Z,0.00
2022-09-14T06:22:22.830Z,4.00
2022-09-14T06:23:22.789Z,0.00
2022-09-14T06:24:22.783Z,0.00
2022-09-14T06:25:22.785Z,0.00
2022-09-14T06:26:22.771Z,4.00
2022-09-14T06:27:22.768Z,0.00
2022-09-14T06:28:23.210Z,4.00
2022-09-14T06:29:22.749Z,4.00
2022-09-14T06:30:22.757Z,4.00
2022-09-14T06:31:22.816Z,4.00
2022-09-14T06:32:22.738Z,4.00
2022-09-14T06:33:22.792Z,4.00
2022-09-14T06:34:22.827Z,4.00
2022-09-14T06:35:22.709Z,4.00
2022-09-14T06:36:22.701Z,4.00
2022-09-14T06:37:23.343Z,4.00
2022-09-14T06:38:22.705Z,4.00
2022-09-14T06:39:22.690Z,4.00
2022-09-14T06:40:22.740Z,8.00
2022-09-14T06:41:22.669Z,4.00
2022-09-14T06:42:22.685Z,4.00
2022-09-14T06:43:22.655Z,4.00
2022-09-14T06:44:22.666Z,4.00
2022-09-14T06:45:22.648Z,4.00
2022-09-14T06:46:22.646Z,4.00
2022-09-14T06:47:22.634Z,4.00
2022-09-14T06:48:22.622Z,4.00
2022-09-14T06:49:22.622Z,4.00
2022-09-14T06:50:22.674Z,4.00
2022-09-14T06:51:22.612Z,4.00
2022-09-14T06:52:22.606Z,4.00
2022-09-14T06:53:22.591Z,4.00
2022-09-14T06:54:22.594Z,4.00
2022-09-14T06:55:22.579Z,4.00
2022-09-14T06:56:22.992Z,4.00
2022-09-14T06:57:22.578Z,4.00
2022-09-14T06:58:22.559Z,4.00
2022-09-14T06:59:23.851Z,4.00
2022-09-14T07:00:23.919Z,4.00
2022-09-14T07:01:22.543Z,4.00
2022-09-14T07:02:22.612Z,4.00
2022-09-14T07:03:22.530Z,4.00
2022-09-14T07:04:22.531Z,4.00
2022-09-14T07:05:22.519Z,4.00
2022-09-14T07:06:22.561Z,4.00
2022-09-14T07:07:22.499Z,4.00
2022-09-14T07:08:22.493Z,4.00
2022-09-14T07:09:22.974Z,4.00
2022-09-14T07:10:22.478Z,8.00
2022-09-14T07:11:22.494Z,4.00
2022-09-14T07:12:22.474Z,4.00
2022-09-14T07:13:22.458Z,4.00
2022-09-14T07:14:22.461Z,4.00
2022-09-14T07:15:22.443Z,8.00
2022-09-14T07:16:22.931Z,4.00
2022-09-14T07:17:22.433Z,4.00
2022-09-14T07:18:22.421Z,4.00
2022-09-14T07:19:22.421Z,4.00
2022-09-14T07:20:22.509Z,4.00
2022-09-14T07:21:22.402Z,4.00
2022-09-14T07:22:22.504Z,4.00
2022-09-14T07:23:22.425Z,4.00
2022-09-14T07:24:22.382Z,8.00
2022-09-14T07:25:22.381Z,8.00
2022-09-14T07:26:22.371Z,4.00
2022-09-14T07:27:22.385Z,4.00
2022-09-14T07:28:22.366Z,4.00
2022-09-14T07:29:22.349Z,4.00
2022-09-14T07:30:22.408Z,4.00
2022-09-14T07:31:22.427Z,4.00
2022-09-14T07:32:22.329Z,8.00
2022-09-14T07:33:22.867Z,8.00
2022-09-14T07:34:22.321Z,4.00
2022-09-14T07:35:22.325Z,4.00
2022-09-14T07:36:22.302Z,4.00
2022-09-14T07:37:23.992Z,8.00
2022-09-14T07:38:35.749Z,8.00
2022-09-14T07:39:23.301Z,8.00
2022-09-14T07:40:22.364Z,8.00
2022-09-14T07:41:22.268Z,8.00
2022-09-14T07:42:22.267Z,4.00
2022-09-14T07:43:22.444Z,8.00
2022-09-14T07:44:23.038Z,8.00
2022-09-14T07:45:22.246Z,8.00
2022-09-14T07:46:22.314Z,4.00
2022-09-14T07:47:22.232Z,8.00
2022-09-14T07:48:22.227Z,8.00
2022-09-14T07:49:22.229Z,8.00
2022-09-14T07:50:22.291Z,8.00
2022-09-14T07:51:22.207Z,8.00
2022-09-14T07:52:22.202Z,8.00
2022-09-14T07:53:22.182Z,8.00
2022-09-14T07:54:22.467Z,8.00
2022-09-14T07:55:22.168Z,8.00
2022-09-14T07:56:22.164Z,8.00
2022-09-14T07:57:39.485Z,8.00
2022-09-14T07:58:23.147Z,8.00
2022-09-14T07:59:35.748Z,8.00
2022-09-14T08:00:23.140Z,8.00
2022-09-14T08:01:22.196Z,12.00
2022-09-14T08:02:22.205Z,8.00
2022-09-14T08:03:22.111Z,12.00
2022-09-14T08:04:22.106Z,8.00
2022-09-14T08:05:22.945Z,12.00
2022-09-14T08:06:22.102Z,12.00
2022-09-14T08:07:22.089Z,16.00
2022-09-14T08:08:22.079Z,12.00
2022-09-14T08:09:22.083Z,16.00
2022-09-14T08:10:22.087Z,16.00
2022-09-14T08:11:22.488Z,16.00
2022-09-14T08:12:22.059Z,16.00
2022-09-14T08:13:22.044Z,16.00
2022-09-14T08:14:22.047Z,16.00
2022-09-14T08:15:25.195Z,20.00
2022-09-14T08:16:23.094Z,20.00
2022-09-14T08:17:22.027Z,20.00
2022-09-14T08:18:22.958Z,16.00
2022-09-14T08:19:22.482Z,16.00
2022-09-14T08:20:22.006Z,20.00
2022-09-14T08:21:21.996Z,20.00
2022-09-14T08:22:22.022Z,12.00
2022-09-14T08:23:21.993Z,16.00
2022-09-14T08:24:21.989Z,12.00
2022-09-14T08:25:22.400Z,12.00
2022-09-14T08:26:22.075Z,16.00
2022-09-14T08:27:21.957Z,16.00
2022-09-14T08:28:22.492Z,16.00
2022-09-14T08:29:22.368Z,16.00
2022-09-14T08:30:21.930Z,16.00
2022-09-14T08:31:22.032Z,16.00
2022-09-14T08:32:21.949Z,16.00
2022-09-14T08:33:21.910Z,16.00
2022-09-14T08:34:21.926Z,16.00
2022-09-14T08:35:40.856Z,12.00
2022-09-14T08:36:22.889Z,16.00
2022-09-14T08:37:21.886Z,16.00
2022-09-14T08:38:21.888Z,16.00
2022-09-14T08:39:22.528Z,16.00
2022-09-14T08:40:21.993Z,12.00
2022-09-14T08:41:21.880Z,16.00
2022-09-14T08:42:21.871Z,16.00
2022-09-14T08:43:21.844Z,12.00
2022-09-14T08:44:21.859Z,12.00
2022-09-14T08:45:22.607Z,16.00
2022-09-14T08:46:21.835Z,20.00
2022-09-14T08:47:21.824Z,16.00
2022-09-14T08:48:21.809Z,20.00
2022-09-14T08:49:21.813Z,16.00
2022-09-14T08:50:21.811Z,20.00
2022-09-14T08:51:21.789Z,20.00
2022-09-14T08:52:23.053Z,20.00
2022-09-14T08:53:21.781Z,16.00
2022-09-14T08:54:21.780Z,20.00
2022-09-14T08:55:21.801Z,20.00
2022-09-14T08:56:21.765Z,20.00
2022-09-14T08:57:21.746Z,20.00
2022-09-14T08:58:21.849Z,20.00
2022-09-14T08:59:21.743Z,20.00
2022-09-14T09:00:21.728Z,20.00
2022-09-14T09:01:21.884Z,20.00
2022-09-14T09:02:21.711Z,20.00
2022-09-14T09:03:21.714Z,20.00
2022-09-14T09:04:21.814Z,16.00
2022-09-14T09:05:21.692Z,20.00
2022-09-14T09:06:21.690Z,20.00
2022-09-14T09:07:21.697Z,20.00
2022-09-14T09:08:21.670Z,20.00
2022-09-14T09:09:21.666Z,20.00
2022-09-14T09:10:21.670Z,20.00
2022-09-14T09:11:21.658Z,20.00
2022-09-14T09:12:22.065Z,24.00
2022-09-14T09:13:21.731Z,20.00
2022-09-14T09:14:21.654Z,24.00
2022-09-14T09:15:21.635Z,24.00
2022-09-14T09:16:21.694Z,24.00
2022-09-14T09:17:21.628Z,24.00
2022-09-14T09:18:21.614Z,24.00
2022-09-14T09:19:23.250Z,24.00
2022-09-14T09:20:21.591Z,24.00
2022-09-14T09:21:21.590Z,20.00
2022-09-14T09:22:21.576Z,24.00
2022-09-14T09:23:21.668Z,24.00
2022-09-14T09:24:21.570Z,28.00
2022-09-14T09:25:21.981Z,24.00
2022-09-14T09:26:21.549Z,28.00
2022-09-14T09:27:21.541Z,28.00
2022-09-14T09:28:21.545Z,28.00
2022-09-14T09:29:21.529Z,28.00
2022-09-14T09:30:21.555Z,24.00
2022-09-14T09:31:22.035Z,20.00
2022-09-14T09:32:21.511Z,20.00
2022-09-14T09:33:21.563Z,20.00
2022-09-14T09:34:21.520Z,20.00
2022-09-14T09:35:21.850Z,20.00
2022-09-14T09:36:21.490Z,20.00
2022-09-14T09:37:21.492Z,20.00
2022-09-14T09:38:21.480Z,20.00
2022-09-14T09:39:21.886Z,20.00
2022-09-14T09:40:21.547Z,20.00
2022-09-14T09:41:21.502Z,16.00
2022-09-14T09:42:21.454Z,16.00
2022-09-14T09:43:38.992Z,16.00
2022-09-14T09:44:22.432Z,16.00
2022-09-14T09:45:21.429Z,16.00
2022-09-14T09:46:21.955Z,16.00
2022-09-14T09:47:21.432Z,12.00
2022-09-14T09:48:21.412Z,12.00
2022-09-14T09:49:21.393Z,12.00
2022-09-14T09:50:22.372Z,12.00
2022-09-14T09:51:24.043Z,12.00
2022-09-14T09:52:21.374Z,12.00
2022-09-14T09:53:21.376Z,16.00
2022-09-14T09:54:22.155Z,12.00
2022-09-14T09:55:21.352Z,8.00
2022-09-14T09:56:21.791Z,12.00
2022-09-14T09:57:21.347Z,12.00
2022-09-14T09:58:21.334Z,12.00
2022-09-14T09:59:21.326Z,12.00
2022-09-14T10:00:21.327Z,12.00
2022-09-14T10:01:21.370Z,16.00
2022-09-14T10:02:21.436Z,16.00
2022-09-14T10:03:21.308Z,16.00
2022-09-14T10:04:21.297Z,16.00
2022-09-14T10:05:21.293Z,16.00
2022-09-14T10:06:21.282Z,20.00
2022-09-14T10:07:21.274Z,16.00
2022-09-14T10:08:22.052Z,16.00
2022-09-14T10:09:21.264Z,12.00
2022-09-14T10:10:21.264Z,16.00
2022-09-14T10:11:21.253Z,12.00
2022-09-14T10:12:21.241Z,16.00
2022-09-14T10:13:21.655Z,20.00
2022-09-14T10:14:21.235Z,20.00
2022-09-14T10:15:21.225Z,24.00
2022-09-14T10:16:21.322Z,20.00
2022-09-14T10:17:21.231Z,16.00
2022-09-14T10:18:21.225Z,20.00
2022-09-14T10:19:21.198Z,20.00
2022-09-14T10:20:22.465Z,20.00
2022-09-14T10:21:21.179Z,20.00
2022-09-14T10:22:26.255Z,20.00
2022-09-14T10:23:22.179Z,20.00
2022-09-14T10:24:21.158Z,24.00
2022-09-14T10:25:21.172Z,24.00
2022-09-14T10:26:21.144Z,20.00
2022-09-14T10:27:21.134Z,24.00
2022-09-14T10:28:21.137Z,20.00
2022-09-14T10:29:21.121Z,20.00
2022-09-14T10:30:21.123Z,20.00
2022-09-14T10:31:21.612Z,20.00
2022-09-14T10:32:21.107Z,16.00
2022-09-14T10:33:21.102Z,12.00
2022-09-14T10:34:21.196Z,16.00
2022-09-14T10:35:21.079Z,16.00
2022-09-14T10:36:21.092Z,16.00
2022-09-14T10:37:21.082Z,16.00
2022-09-14T10:38:21.071Z,16.00
2022-09-14T10:39:25.359Z,16.00
2022-09-14T10:40:22.091Z,16.00
2022-09-14T10:41:21.217Z,12.00
2022-09-14T10:42:21.036Z,16.00
2022-09-14T10:43:21.027Z,16.00
2022-09-14T10:44:21.030Z,12.00
2022-09-14T10:45:21.020Z,16.00
2022-09-14T10:46:21.063Z,16.00
2022-09-14T10:47:21.432Z,16.00
2022-09-14T10:48:21.432Z,12.00
2022-09-14T10:49:20.998Z,16.00
2022-09-14T10:50:21.168Z,16.00
2022-09-14T10:51:21.010Z,16.00
2022-09-14T10:52:20.967Z,20.00
2022-09-14T10:53:20.968Z,16.00
2022-09-14T10:54:21.750Z,20.00
2022-09-14T10:55:20.945Z,20.00
2022-09-14T10:56:20.967Z,20.00
2022-09-14T10:57:20.932Z,16.00
2022-09-14T10:58:24.256Z,16.00
2022-09-14T10:59:20.926Z,16.00
2022-09-14T11:00:20.910Z,16.00
2022-09-14T11:01:20.943Z,20.00
2022-09-14T11:02:21.449Z,16.00
2022-09-14T11:03:20.895Z,16.00
2022-09-14T11:04:20.882Z,16.00
2022-09-14T11:05:20.881Z,16.00
2022-09-14T11:06:20.893Z,16.00
2022-09-14T11:07:20.861Z,12.00
2022-09-14T11:08:20.879Z,12.00
2022-09-14T11:09:21.517Z,12.00
2022-09-14T11:10:20.851Z,12.00
2022-09-14T11:11:20.841Z,12.00
2022-09-14T11:12:20.847Z,12.00
2022-09-14T11:13:21.827Z,16.00
2022-09-14T11:14:20.819Z,16.00
2022-09-14T11:15:20.807Z,16.00
2022-09-14T11:16:20.862Z,16.00
2022-09-14T11:17:20.799Z,16.00
2022-09-14T11:18:20.803Z,20.00
2022-09-14T11:19:21.199Z,16.00
2022-09-14T11:20:20.778Z,20.00
2022-09-14T11:21:20.766Z,20.00
2022-09-14T11:22:20.793Z,24.00
2022-09-14T11:23:20.755Z,20.00
2022-09-14T11:24:20.777Z,16.00
2022-09-14T11:25:20.749Z,16.00
2022-09-14T11:26:21.150Z,20.00
2022-09-14T11:27:21.134Z,20.00
2022-09-14T11:28:20.724Z,24.00
2022-09-14T11:29:20.712Z,16.00
2022-09-14T11:30:20.709Z,20.00
2022-09-14T11:31:20.772Z,20.00
2022-09-14T11:32:22.037Z,16.00
2022-09-14T11:33:20.683Z,16.00
2022-09-14T11:34:20.672Z,16.00
2022-09-14T11:35:20.677Z,16.00
2022-09-14T11:36:20.688Z,16.00
2022-09-14T11:37:20.660Z,16.00
2022-09-14T11:38:20.677Z,12.00
2022-09-14T11:39:20.645Z,16.00
2022-09-14T11:40:20.743Z,20.00
2022-09-14T11:41:21.058Z,16.00
2022-09-14T11:42:20.620Z,24.00
2022-09-14T11:43:20.620Z,24.00
2022-09-14T11:44:20.604Z,24.00
2022-09-14T11:45:20.606Z,20.00
2022-09-14T11:46:21.114Z,24.00
2022-09-14T11:47:20.586Z,16.00
2022-09-14T11:48:41.819Z,16.00
2022-09-14T11:49:21.577Z,16.00
2022-09-14T11:50:20.569Z,16.00
2022-09-14T11:51:21.230Z,20.00
2022-09-14T11:52:20.570Z,20.00
2022-09-14T11:53:20.545Z,20.00
2022-09-14T11:54:20.557Z,24.00
2022-09-14T11:55:20.550Z,24.00
2022-09-14T11:56:20.521Z,20.00
2022-09-14T11:57:20.540Z,20.00
2022-09-14T11:58:20.513Z,20.00
2022-09-14T11:59:20.503Z,16.00
2022-09-14T12:00:20.501Z,16.00
2022-09-14T12:01:23.753Z,16.00
2022-09-14T12:02:20.533Z,12.00
2022-09-14T12:03:20.562Z,12.00
2022-09-14T12:04:21.170Z,12.00
2022-09-14T12:05:22.623Z,16.00
2022-09-14T12:06:20.453Z,16.00
2022-09-14T12:07:20.457Z,16.00
2022-09-14T12:08:20.440Z,12.00
2022-09-14T12:09:20.441Z,12.00
2022-09-14T12:10:20.783Z,16.00
2022-09-14T12:11:20.422Z,12.00
2022-09-14T12:12:20.427Z,16.00
2022-09-14T12:13:20.409Z,16.00
2022-09-14T12:14:20.402Z,16.00
2022-09-14T12:15:20.403Z,16.00
2022-09-14T12:16:25.677Z,12.00
2022-09-14T12:17:39.863Z,12.00
2022-09-14T12:18:24.045Z,12.00
2022-09-14T12:19:20.368Z,12.00
2022-09-14T12:20:20.530Z,8.00
2022-09-14T12:21:20.359Z,8.00
2022-09-14T12:22:20.353Z,8.00
2022-09-14T12:23:20.338Z,12.00
2022-09-14T12:24:20.338Z,8.00
2022-09-14T12:25:20.329Z,8.00
2022-09-14T12:26:20.898Z,8.00
2022-09-14T12:27:20.320Z,8.00
2022-09-14T12:28:20.305Z,8.00
2022-09-14T12:29:20.306Z,8.00
2022-09-14T12:30:20.714Z,8.00
2022-09-14T12:31:20.750Z,8.00
2022-09-14T12:32:20.286Z,8.00
2022-09-14T12:33:20.274Z,8.00
2022-09-14T12:34:20.270Z,8.00
2022-09-14T12:35:20.272Z,8.00
2022-09-14T12:36:20.258Z,8.00
2022-09-14T12:37:21.189Z,12.00
2022-09-14T12:38:20.246Z,16.00
2022-09-14T12:39:20.240Z,16.00
2022-09-14T12:40:20.339Z,12.00
2022-09-14T12:41:20.227Z,16.00
2022-09-14T12:42:24.687Z,16.00
2022-09-14T12:43:21.579Z,12.00
2022-09-14T12:44:20.199Z,12.00
2022-09-14T12:45:20.202Z,12.00
2022-09-14T12:46:20.753Z,12.00
2022-09-14T12:47:20.182Z,12.00
2022-09-14T12:48:20.189Z,12.00
2022-09-14T12:49:20.168Z,8.00
2022-09-14T12:50:20.163Z,8.00
2022-09-14T12:51:20.170Z,8.00
2022-09-14T12:52:23.141Z,8.00
2022-09-14T12:53:20.172Z,8.00
2022-09-14T12:54:20.133Z,8.00
2022-09-14T12:55:20.138Z,12.00
2022-09-14T12:56:20.121Z,8.00
2022-09-14T12:57:20.126Z,4.00
2022-09-14T12:58:20.586Z,8.00
2022-09-14T12:59:20.103Z,8.00
2022-09-14T13:00:20.101Z,8.00
2022-09-14T13:01:20.234Z,8.00
2022-09-14T13:02:20.205Z,8.00
2022-09-14T13:03:20.084Z,8.00
2022-09-14T13:04:20.084Z,8.00
2022-09-14T13:05:20.070Z,8.00
2022-09-14T13:06:20.063Z,12.00
2022-09-14T13:07:20.050Z,12.00
2022-09-14T13:08:20.041Z,8.00
2022-09-14T13:09:20.857Z,8.00